createdAt,value
2018-08-19T00:00:10.289Z,12.90
2018-08-19T00:01:10.335Z,12.40
2018-08-19T00:02:10.268Z,12.10
2018-08-19T00:03:10.277Z,13.30
2018-08-19T00:04:10.339Z,14.90
2018-08-19T00:05:10.284Z,13.10
2018-08-19T00:06:10.351Z,10.70
2018-08-19T00:07:10.347Z,11.10
2018-08-19T00:08:10.360Z,11.40
2018-08-19T00:09:10.364Z,11.50
2018-08-19T00:10:10.358Z,10.60
2018-08-19T00:11:10.417Z,10.60
2018-08-19T00:12:10.372Z,10.10
2018-08-19T00:13:10.417Z,10.80
2018-08-19T00:14:10.415Z,11.10
2018-08-19T00:15:10.427Z,11.20
2018-08-19T00:16:10.541Z,10.50
2018-08-19T00:17:10.519Z,10.40
2018-08-19T00:18:10.462Z,11.50
2018-08-19T00:19:10.501Z,10.60
2018-08-19T00:20:10.480Z,11.30
2018-08-19T00:21:10.499Z,13.50
2018-08-19T00:22:10.546Z,16.70
2018-08-19T00:23:10.568Z,13.90
2018-08-19T00:24:10.517Z,14.70
2018-08-19T00:25:10.564Z,15.30
2018-08-19T00:26:10.552Z,15.90
2018-08-19T00:27:10.559Z,15.70
2018-08-19T00:28:10.626Z,15.80
2018-08-19T00:29:10.684Z,13.20
2018-08-19T00:30:10.632Z,11.50
2018-08-19T00:31:10.637Z,14.00
2018-08-19T00:32:10.634Z,14.80
2018-08-19T00:33:10.641Z,14.40
2018-08-19T00:34:10.652Z,17.30
2018-08-19T00:35:10.740Z,16.20
2018-08-19T00:36:10.711Z,15.10
2018-08-19T00:37:10.717Z,19.30
2018-08-19T00:38:10.704Z,20.40
2018-08-19T00:39:10.723Z,19.00
2018-08-19T00:40:10.727Z,19.30
2018-08-19T00:41:10.801Z,18.10
2018-08-19T00:42:10.765Z,16.30
2018-08-19T00:43:10.767Z,17.90
2018-08-19T00:44:10.780Z,18.50
2018-08-19T00:45:10.821Z,16.20
2018-08-19T00:46:10.807Z,15.30
2018-08-19T00:47:10.809Z,14.40
2018-08-19T00:48:10.842Z,13.50
2018-08-19T00:49:10.882Z,13.50
2018-08-19T00:50:10.924Z,12.30
2018-08-19T00:51:10.862Z,19.40
2018-08-19T00:52:10.883Z,17.60
2018-08-19T00:53:10.891Z,13.40
2018-08-19T00:54:10.899Z,14.80
2018-08-19T00:55:11.019Z,14.10
2018-08-19T00:56:11.001Z,13.60
2018-08-19T00:57:10.942Z,13.90
2018-08-19T00:58:10.970Z,12.60
2018-08-19T00:59:10.967Z,11.70
2018-08-19T01:00:10.988Z,11.80
2018-08-19T01:01:11.048Z,11.90
2018-08-19T01:02:10.998Z,12.00
2018-08-19T01:03:11.013Z,14.20
2018-08-19T01:04:11.024Z,14.90
2018-08-19T01:05:11.034Z,13.50
2018-08-19T01:06:11.117Z,11.90
2018-08-19T01:07:11.051Z,13.70
2018-08-19T01:08:11.070Z,15.40
2018-08-19T01:09:11.092Z,13.50
2018-08-19T01:10:11.095Z,12.50
2018-08-19T01:11:11.145Z,12.40
2018-08-19T01:12:11.117Z,12.70
2018-08-19T01:13:11.161Z,13.50
2018-08-19T01:14:11.233Z,12.70
2018-08-19T01:15:11.166Z,11.50
2018-08-19T01:16:11.190Z,13.10
2018-08-19T01:17:11.192Z,13.00
2018-08-19T01:18:11.195Z,12.20
2018-08-19T01:19:11.255Z,11.70
2018-08-19T01:20:11.212Z,11.80
2018-08-19T01:21:11.239Z,11.60
2018-08-19T01:22:11.278Z,11.30
2018-08-19T01:23:11.268Z,11.60
2018-08-19T01:24:11.278Z,12.50
2018-08-19T01:25:11.318Z,11.60
2018-08-19T01:26:11.337Z,11.80
2018-08-19T01:27:11.305Z,14.00
2018-08-19T01:28:11.331Z,15.50
2018-08-19T01:29:11.360Z,16.00
2018-08-19T01:30:11.336Z,13.20
2018-08-19T01:31:11.390Z,15.10
2018-08-19T01:32:11.361Z,15.40
2018-08-19T01:33:11.423Z,16.40
2018-08-19T01:34:11.379Z,15.10
2018-08-19T01:35:11.413Z,12.20
2018-08-19T01:36:11.439Z,14.70
2018-08-19T01:37:11.412Z,12.80
2018-08-19T01:38:11.482Z,12.90
2018-08-19T01:39:11.458Z,12.90
2018-08-19T01:40:11.446Z,12.10
2018-08-19T01:41:11.459Z,12.80
2018-08-19T01:42:11.514Z,11.90
2018-08-19T01:43:11.546Z,12.90
2018-08-19T01:44:11.510Z,13.70
2018-08-19T01:45:11.515Z,14.80
2018-08-19T01:46:11.554Z,13.70
2018-08-19T01:47:11.553Z,13.10
2018-08-19T01:48:11.588Z,13.60
2018-08-19T01:49:11.654Z,14.00
2018-08-19T01:50:11.584Z,13.80
2018-08-19T01:51:11.578Z,14.20
2018-08-19T01:52:11.637Z,16.20
2018-08-19T01:53:11.643Z,12.90
2018-08-19T01:54:11.651Z,12.70
2018-08-19T01:55:11.682Z,13.50
2018-08-19T01:56:11.669Z,12.70
2018-08-19T01:57:11.660Z,13.20
2018-08-19T01:58:11.696Z,12.60
2018-08-19T01:59:11.765Z,11.20
2018-08-19T02:00:11.697Z,10.70
2018-08-19T02:01:11.718Z,11.40
2018-08-19T02:02:11.757Z,12.60
2018-08-19T02:03:11.758Z,12.60
2018-08-19T02:04:11.824Z,12.20
2018-08-19T02:05:11.779Z,11.40
2018-08-19T02:06:11.777Z,11.40
2018-08-19T02:07:11.825Z,11.10
2018-08-19T02:08:11.797Z,11.30
2018-08-19T02:09:11.872Z,11.20
2018-08-19T02:10:11.833Z,11.00
2018-08-19T02:11:11.886Z,11.50
2018-08-19T02:12:11.863Z,10.40
2018-08-19T02:13:11.879Z,9.90
2018-08-19T02:14:11.877Z,10.40
2018-08-19T02:15:11.897Z,10.30
2018-08-19T02:16:11.943Z,8.90
2018-08-19T02:17:11.925Z,8.90
2018-08-19T02:18:11.911Z,8.80
2018-08-19T02:19:11.945Z,8.10
2018-08-19T02:20:11.943Z,8.10
2018-08-19T02:21:11.998Z,7.50
2018-08-19T02:22:11.961Z,7.90
2018-08-19T02:23:11.965Z,7.70
2018-08-19T02:24:12.015Z,7.80
2018-08-19T02:25:12.023Z,7.70
2018-08-19T02:26:12.044Z,7.20
2018-08-19T02:27:12.027Z,7.10
2018-08-19T02:28:12.122Z,7.50
2018-08-19T02:29:12.042Z,8.20
2018-08-19T02:30:12.076Z,9.60
2018-08-19T02:31:12.065Z,8.30
2018-08-19T02:32:12.076Z,8.10
2018-08-19T02:33:12.123Z,7.90
2018-08-19T02:34:12.125Z,7.40
2018-08-19T02:35:12.134Z,7.20
2018-08-19T02:36:12.148Z,6.90
2018-08-19T02:37:12.131Z,6.60
2018-08-19T02:38:12.187Z,6.60
2018-08-19T02:39:12.226Z,6.90
2018-08-19T02:40:12.257Z,7.30
2018-08-19T02:41:12.210Z,6.70
2018-08-19T02:42:12.237Z,7.00
2018-08-19T02:43:12.230Z,6.90
2018-08-19T02:44:12.217Z,6.30
2018-08-19T02:45:12.247Z,6.00
2018-08-19T02:46:12.317Z,5.60
2018-08-19T02:47:12.283Z,6.00
2018-08-19T02:48:12.276Z,6.10
2018-08-19T02:49:12.292Z,6.50
2018-08-19T02:50:12.383Z,6.30
2018-08-19T02:51:12.351Z,5.70
2018-08-19T02:52:12.337Z,5.60
2018-08-19T02:53:12.331Z,5.60
2018-08-19T02:54:12.368Z,5.50
2018-08-19T02:55:12.382Z,5.40
2018-08-19T02:56:12.413Z,5.60
2018-08-19T02:57:12.395Z,5.20
2018-08-19T02:58:12.388Z,4.90
2018-08-19T02:59:12.422Z,4.90
2018-08-19T03:00:12.411Z,5.10
2018-08-19T03:01:12.500Z,5.90
2018-08-19T03:02:12.469Z,5.10
2018-08-19T03:03:12.443Z,5.70
2018-08-19T03:04:12.482Z,5.40
2018-08-19T03:05:12.493Z,5.20
2018-08-19T03:06:12.501Z,4.60
2018-08-19T03:07:12.554Z,5.00
2018-08-19T03:08:12.525Z,4.70
2018-08-19T03:09:12.524Z,4.70
2018-08-19T03:10:12.565Z,5.10
2018-08-19T03:11:12.537Z,5.10
2018-08-19T03:12:12.628Z,5.10
2018-08-19T03:13:12.598Z,4.90
2018-08-19T03:14:12.587Z,4.90
2018-08-19T03:15:12.793Z,4.80
2018-08-19T03:16:12.619Z,4.60
2018-08-19T03:17:12.673Z,4.40
2018-08-19T03:18:12.690Z,4.70
2018-08-19T03:19:12.653Z,4.90
2018-08-19T03:20:12.712Z,5.20
2018-08-19T03:21:12.655Z,5.10
2018-08-19T03:22:12.717Z,5.30
2018-08-19T03:23:12.748Z,4.60
2018-08-19T03:24:12.770Z,4.80
2018-08-19T03:25:12.723Z,5.10
2018-08-19T03:26:12.748Z,4.90
2018-08-19T03:27:12.763Z,5.00
2018-08-19T03:28:12.742Z,4.80
2018-08-19T03:29:12.805Z,5.00
2018-08-19T03:30:12.814Z,4.70
2018-08-19T03:31:12.812Z,4.90
2018-08-19T03:32:12.792Z,4.50
2018-08-19T03:33:12.820Z,4.80
2018-08-19T03:34:12.841Z,4.50
2018-08-19T03:35:12.902Z,5.00
2018-08-19T03:36:12.858Z,4.70
2018-08-19T03:37:12.881Z,4.70
2018-08-19T03:38:12.878Z,4.60
2018-08-19T03:39:12.878Z,4.60
2018-08-19T03:40:12.900Z,4.80
2018-08-19T03:41:12.951Z,4.80
2018-08-19T03:42:12.954Z,5.00
2018-08-19T03:43:12.945Z,5.10
2018-08-19T03:44:12.949Z,5.00
2018-08-19T03:45:12.951Z,5.20
2018-08-19T03:46:13.045Z,5.40
2018-08-19T03:47:12.999Z,5.10
2018-08-19T03:48:13.007Z,5.30
2018-08-19T03:49:13.009Z,4.60
2018-08-19T03:50:13.024Z,4.70
2018-08-19T03:51:13.045Z,4.60
2018-08-19T03:52:13.107Z,4.50
2018-08-19T03:53:13.055Z,4.70
2018-08-19T03:54:13.062Z,5.00
2018-08-19T03:55:13.090Z,4.70
2018-08-19T03:56:13.078Z,5.00
2018-08-19T03:57:13.146Z,4.60
2018-08-19T03:58:13.112Z,4.70
2018-08-19T03:59:13.115Z,4.70
2018-08-19T04:00:13.135Z,4.70
2018-08-19T04:01:13.153Z,4.70
2018-08-19T04:02:13.180Z,4.90
2018-08-19T04:03:13.187Z,4.90
2018-08-19T04:04:13.190Z,4.80
2018-08-19T04:05:13.201Z,4.70
2018-08-19T04:06:13.199Z,4.70
2018-08-19T04:07:13.274Z,4.90
2018-08-19T04:08:13.285Z,4.50
2018-08-19T04:09:13.240Z,4.70
2018-08-19T04:10:13.256Z,4.50
2018-08-19T04:11:13.251Z,4.60
2018-08-19T04:12:13.261Z,4.50
2018-08-19T04:13:13.327Z,4.50
2018-08-19T04:14:13.317Z,4.60
2018-08-19T04:15:13.324Z,4.20
2018-08-19T04:16:13.318Z,5.00
2018-08-19T04:17:13.345Z,4.60
2018-08-19T04:18:13.401Z,4.30
2018-08-19T04:19:13.373Z,4.40
2018-08-19T04:20:13.376Z,4.70
2018-08-19T04:21:13.405Z,4.60
2018-08-19T04:22:13.394Z,4.30
2018-08-19T04:23:13.478Z,4.80
2018-08-19T04:24:13.460Z,5.20
2018-08-19T04:25:13.430Z,4.20
2018-08-19T04:26:13.462Z,4.40
2018-08-19T04:27:13.477Z,4.70
2018-08-19T04:28:13.517Z,4.80
2018-08-19T04:29:13.474Z,4.50
2018-08-19T04:30:13.489Z,4.70
2018-08-19T04:31:13.497Z,4.30
2018-08-19T04:32:13.508Z,4.80
2018-08-19T04:33:13.579Z,4.30
2018-08-19T04:34:13.547Z,4.60
2018-08-19T04:35:13.572Z,4.60
2018-08-19T04:36:13.575Z,4.50
2018-08-19T04:37:13.571Z,4.50
2018-08-19T04:38:13.627Z,4.50
2018-08-19T04:39:13.637Z,4.50
2018-08-19T04:40:13.639Z,4.60
2018-08-19T04:41:13.608Z,4.60
2018-08-19T04:42:13.671Z,4.70
2018-08-19T04:43:13.635Z,4.60
2018-08-19T04:44:13.690Z,4.60
2018-08-19T04:45:13.708Z,4.60
2018-08-19T04:46:13.679Z,4.60
2018-08-19T04:47:13.705Z,5.10
2018-08-19T04:48:13.707Z,4.80
2018-08-19T04:49:13.701Z,4.60
2018-08-19T04:50:13.774Z,4.70
2018-08-19T04:51:13.779Z,4.70
2018-08-19T04:52:13.789Z,4.90
2018-08-19T04:53:13.767Z,4.50
2018-08-19T04:54:13.790Z,4.60
2018-08-19T04:55:13.803Z,5.00
2018-08-19T04:56:13.803Z,5.00
2018-08-19T04:57:13.815Z,4.80
2018-08-19T04:58:13.844Z,4.90
2018-08-19T04:59:13.839Z,4.90
2018-08-19T05:00:13.903Z,4.60
2018-08-19T05:01:13.852Z,5.00
2018-08-19T05:02:14.111Z,4.70
2018-08-19T05:03:13.897Z,4.60
2018-08-19T05:04:13.887Z,4.70
2018-08-19T05:05:13.889Z,4.70
2018-08-19T05:06:13.923Z,5.00
2018-08-19T05:07:13.974Z,4.80
2018-08-19T05:08:14.074Z,4.90
2018-08-19T05:09:14.012Z,4.60
2018-08-19T05:10:13.964Z,4.50
2018-08-19T05:11:14.072Z,5.00
2018-08-19T05:12:14.033Z,4.70
2018-08-19T05:13:14.056Z,4.70
2018-08-19T05:14:14.026Z,4.90
2018-08-19T05:15:14.020Z,4.90
2018-08-19T05:16:14.070Z,4.10
2018-08-19T05:17:14.135Z,4.50
2018-08-19T05:18:14.064Z,4.60
2018-08-19T05:19:14.086Z,4.30
2018-08-19T05:20:14.116Z,4.50
2018-08-19T05:21:14.112Z,4.60
2018-08-19T05:22:14.145Z,4.40
2018-08-19T05:23:14.177Z,4.50
2018-08-19T05:24:14.175Z,4.50
2018-08-19T05:25:14.160Z,4.50
2018-08-19T05:26:14.181Z,4.30
2018-08-19T05:27:14.197Z,4.70
2018-08-19T05:28:14.245Z,4.10
2018-08-19T05:29:14.196Z,4.40
2018-08-19T05:30:14.218Z,4.30
2018-08-19T05:31:14.227Z,4.20
2018-08-19T05:32:14.219Z,4.30
2018-08-19T05:33:14.288Z,4.00
2018-08-19T05:34:14.272Z,4.30
2018-08-19T05:35:14.295Z,4.40
2018-08-19T05:36:14.297Z,4.30
2018-08-19T05:37:14.308Z,4.40
2018-08-19T05:38:14.351Z,4.70
2018-08-19T05:39:14.320Z,4.50
2018-08-19T05:40:14.353Z,4.70
2018-08-19T05:41:14.352Z,4.50
2018-08-19T05:42:14.354Z,4.40
2018-08-19T05:43:14.388Z,4.30
2018-08-19T05:44:14.369Z,5.00
2018-08-19T05:45:14.484Z,4.50
2018-08-19T05:46:14.430Z,4.50
2018-08-19T05:47:14.484Z,4.20
2018-08-19T05:48:14.446Z,4.30
2018-08-19T05:49:14.443Z,4.50
2018-08-19T05:50:14.529Z,4.00
2018-08-19T05:51:14.477Z,4.10
2018-08-19T05:52:14.543Z,4.10
2018-08-19T05:53:14.511Z,4.00
2018-08-19T05:54:14.528Z,4.00
2018-08-19T05:55:14.563Z,4.20
2018-08-19T05:56:14.568Z,3.70
2018-08-19T05:57:14.609Z,4.10
2018-08-19T05:58:14.585Z,4.00
2018-08-19T05:59:14.617Z,4.10
2018-08-19T06:00:14.601Z,4.10
2018-08-19T06:01:14.673Z,4.10
2018-08-19T06:02:14.638Z,4.10
2018-08-19T06:03:14.679Z,3.70
2018-08-19T06:04:14.668Z,3.30
2018-08-19T06:05:14.712Z,3.80
2018-08-19T06:06:14.689Z,3.80
2018-08-19T06:07:14.710Z,3.80
2018-08-19T06:08:14.749Z,3.30
2018-08-19T06:09:14.717Z,3.70
2018-08-19T06:10:14.744Z,3.30
2018-08-19T06:11:14.732Z,3.60
2018-08-19T06:12:14.782Z,3.60
2018-08-19T06:13:14.816Z,3.60
2018-08-19T06:14:14.791Z,3.80
2018-08-19T06:15:14.802Z,3.70
2018-08-19T06:16:14.823Z,3.60
2018-08-19T06:17:14.832Z,3.60
2018-08-19T06:18:14.884Z,3.30
2018-08-19T06:19:14.851Z,3.40
2018-08-19T06:20:14.894Z,3.70
2018-08-19T06:21:14.898Z,3.70
2018-08-19T06:22:14.917Z,3.30
2018-08-19T06:23:14.927Z,3.20
2018-08-19T06:24:14.996Z,3.50
2018-08-19T06:25:14.951Z,3.70
2018-08-19T06:26:14.960Z,3.70
2018-08-19T06:27:14.950Z,3.20
2018-08-19T06:28:14.996Z,3.30
2018-08-19T06:29:15.069Z,3.50
2018-08-19T06:30:15.092Z,3.40
2018-08-19T06:31:15.111Z,3.40
2018-08-19T06:32:15.077Z,3.40
2018-08-19T06:33:15.060Z,3.40
2018-08-19T06:34:15.085Z,3.30
2018-08-19T06:35:15.113Z,3.30
2018-08-19T06:36:15.122Z,3.10
2018-08-19T06:37:15.096Z,3.50
2018-08-19T06:38:15.174Z,10.40
2018-08-19T06:39:15.122Z,11.60
2018-08-19T06:40:15.199Z,6.70
2018-08-19T06:41:15.182Z,3.90
2018-08-19T06:42:15.175Z,3.50
2018-08-19T06:43:15.289Z,3.20
2018-08-19T06:44:15.219Z,3.40
2018-08-19T06:45:15.258Z,3.00
2018-08-19T06:46:15.263Z,3.50
2018-08-19T06:47:15.248Z,3.60
2018-08-19T06:48:15.260Z,7.70
2018-08-19T06:49:15.298Z,6.60
2018-08-19T06:50:15.281Z,4.30
2018-08-19T06:51:15.385Z,3.60
2018-08-19T06:52:15.395Z,3.10
2018-08-19T06:53:15.340Z,2.80
2018-08-19T06:54:15.350Z,3.20
2018-08-19T06:55:15.379Z,3.20
2018-08-19T06:56:15.401Z,2.80
2018-08-19T06:57:15.417Z,3.10
2018-08-19T06:58:15.384Z,3.00
2018-08-19T06:59:15.424Z,3.10
2018-08-19T07:00:15.450Z,2.80
2018-08-19T07:01:15.443Z,3.00
2018-08-19T07:02:15.493Z,2.90
2018-08-19T07:03:15.501Z,3.20
2018-08-19T07:04:15.474Z,3.20
2018-08-19T07:05:15.507Z,3.30
2018-08-19T07:06:15.512Z,3.10
2018-08-19T07:07:15.592Z,3.10
2018-08-19T07:08:15.537Z,3.00
2018-08-19T07:09:15.569Z,3.10
2018-08-19T07:10:15.558Z,3.00
2018-08-19T07:11:15.589Z,3.20
2018-08-19T07:12:15.647Z,2.90
2018-08-19T07:13:15.604Z,2.70
2018-08-19T07:14:15.626Z,3.20
2018-08-19T07:15:15.643Z,3.40
2018-08-19T07:16:15.658Z,4.20
2018-08-19T07:17:15.705Z,3.70
2018-08-19T07:18:15.733Z,3.60
2018-08-19T07:19:15.720Z,3.40
2018-08-19T07:20:15.713Z,3.30
2018-08-19T07:21:15.723Z,3.00
2018-08-19T07:22:15.739Z,3.10
2018-08-19T07:23:15.797Z,3.30
2018-08-19T07:24:15.792Z,3.60
2018-08-19T07:25:15.802Z,3.30
2018-08-19T07:26:15.781Z,3.40
2018-08-19T07:27:15.826Z,2.90
2018-08-19T07:28:15.854Z,3.20
2018-08-19T07:29:15.878Z,3.20
2018-08-19T07:30:15.891Z,3.20
2018-08-19T07:31:15.878Z,3.90
2018-08-19T07:32:15.861Z,3.50
2018-08-19T07:33:15.901Z,3.90
2018-08-19T07:34:15.910Z,3.80
2018-08-19T07:35:15.968Z,3.70
2018-08-19T07:36:15.956Z,4.20
2018-08-19T07:37:16.005Z,4.20
2018-08-19T07:38:15.957Z,3.70
2018-08-19T07:39:15.960Z,3.70
2018-08-19T07:40:16.019Z,3.90
2018-08-19T07:41:16.038Z,4.20
2018-08-19T07:42:16.025Z,4.30
2018-08-19T07:43:16.042Z,4.10
2018-08-19T07:44:16.173Z,4.00
2018-08-19T07:45:16.073Z,3.70
2018-08-19T07:46:16.088Z,3.70
2018-08-19T07:47:16.088Z,4.00
2018-08-19T07:48:16.093Z,3.40
2018-08-19T07:49:16.259Z,3.30
2018-08-19T07:50:16.161Z,3.40
2018-08-19T07:51:16.294Z,3.70
2018-08-19T07:52:16.227Z,3.80
2018-08-19T07:53:16.178Z,4.50
2018-08-19T07:54:16.200Z,4.10
2018-08-19T07:55:16.257Z,4.20
2018-08-19T07:56:16.343Z,3.80
2018-08-19T07:57:16.252Z,3.70
2018-08-19T07:58:16.272Z,3.50
2018-08-19T07:59:16.243Z,3.50
2018-08-19T08:00:16.296Z,3.70
2018-08-19T08:01:16.310Z,3.50
2018-08-19T08:02:16.284Z,3.40
2018-08-19T08:03:16.321Z,3.30
2018-08-19T08:04:16.334Z,3.40
2018-08-19T08:05:16.354Z,3.20
2018-08-19T08:06:16.347Z,3.20
2018-08-19T08:07:16.385Z,3.40
2018-08-19T08:08:16.376Z,3.50
2018-08-19T08:09:16.388Z,3.60
2018-08-19T08:10:16.443Z,4.00
2018-08-19T08:11:16.414Z,3.00
2018-08-19T08:12:16.437Z,2.60
2018-08-19T08:13:16.427Z,2.60
2018-08-19T08:14:16.452Z,2.90
2018-08-19T08:15:16.570Z,2.70
2018-08-19T08:16:16.479Z,3.40
2018-08-19T08:17:16.503Z,2.80
2018-08-19T08:18:16.527Z,2.90
2018-08-19T08:19:16.531Z,3.20
2018-08-19T08:20:16.584Z,3.20
2018-08-19T08:21:16.626Z,2.90
2018-08-19T08:22:16.610Z,3.00
2018-08-19T08:23:16.565Z,2.90
2018-08-19T08:24:16.613Z,3.40
2018-08-19T08:25:16.639Z,2.90
2018-08-19T08:26:16.679Z,2.70
2018-08-19T08:27:16.634Z,3.20
2018-08-19T08:28:16.657Z,3.00
2018-08-19T08:29:16.701Z,2.90
2018-08-19T08:30:16.672Z,2.90
2018-08-19T08:31:16.752Z,3.00
2018-08-19T08:32:16.718Z,3.00
2018-08-19T08:33:16.721Z,2.80
2018-08-19T08:34:16.780Z,2.80
2018-08-19T08:35:16.795Z,2.90
2018-08-19T08:36:16.816Z,3.10
2018-08-19T08:37:16.755Z,3.00
2018-08-19T08:38:16.786Z,2.90
2018-08-19T08:39:16.808Z,2.80
2018-08-19T08:40:16.823Z,3.10
2018-08-19T08:41:16.871Z,3.20
2018-08-19T08:42:16.870Z,3.20
2018-08-19T08:43:16.866Z,2.80
2018-08-19T08:44:16.905Z,3.20
2018-08-19T08:45:16.896Z,3.00
2018-08-19T08:46:17.712Z,3.00
2018-08-19T08:47:16.936Z,3.40
2018-08-19T08:48:16.934Z,3.40
2018-08-19T08:49:16.942Z,3.40
2018-08-19T08:50:16.956Z,2.90
2018-08-19T08:51:16.951Z,3.50
2018-08-19T08:52:17.041Z,3.40
2018-08-19T08:53:17.036Z,3.20
2018-08-19T08:54:17.025Z,3.30
2018-08-19T08:55:17.078Z,3.20
2018-08-19T08:56:17.363Z,3.30
2018-08-19T08:57:17.207Z,3.20
2018-08-19T08:58:17.836Z,3.30
2018-08-19T08:59:17.071Z,3.90
2018-08-19T09:00:17.325Z,3.30
2018-08-19T09:01:17.428Z,3.10
2018-08-19T09:02:17.392Z,3.60
2018-08-19T09:03:17.256Z,4.90
2018-08-19T09:04:17.190Z,4.10
2018-08-19T09:05:17.223Z,3.60
2018-08-19T09:06:17.162Z,3.70
2018-08-19T09:07:17.184Z,3.40
2018-08-19T09:08:17.233Z,3.10
2018-08-19T09:09:17.247Z,3.40
2018-08-19T09:10:17.236Z,3.60
2018-08-19T09:11:17.264Z,3.20
2018-08-19T09:12:17.270Z,4.60
2018-08-19T09:13:17.290Z,4.20
2018-08-19T09:14:17.486Z,4.10
2018-08-19T09:15:17.329Z,4.10
2018-08-19T09:16:18.578Z,4.00
2018-08-19T09:17:17.349Z,4.40
2018-08-19T09:18:17.391Z,4.20
2018-08-19T09:19:17.536Z,4.80
2018-08-19T09:20:17.445Z,4.60
2018-08-19T09:21:17.376Z,3.80
2018-08-19T09:22:17.388Z,3.10
2018-08-19T09:23:17.497Z,3.10
2018-08-19T09:24:17.474Z,3.20
2018-08-19T09:25:17.481Z,3.20
2018-08-19T09:26:17.563Z,3.70
2018-08-19T09:27:17.466Z,3.20
2018-08-19T09:28:17.476Z,6.80
2018-08-19T09:29:17.481Z,3.40
2018-08-19T09:30:17.504Z,3.30
2018-08-19T09:31:17.631Z,3.50
2018-08-19T09:32:17.560Z,5.60
2018-08-19T09:33:17.595Z,4.10
2018-08-19T09:34:17.582Z,3.50
2018-08-19T09:35:17.663Z,2.90
2018-08-19T09:36:17.639Z,3.40
2018-08-19T09:37:17.636Z,3.80
2018-08-19T09:38:17.619Z,3.80
2018-08-19T09:39:17.628Z,4.00
2018-08-19T09:40:17.666Z,3.80
2018-08-19T09:41:17.783Z,3.50
2018-08-19T09:42:17.755Z,3.50
2018-08-19T09:43:17.687Z,2.90
2018-08-19T09:44:17.826Z,3.00
2018-08-19T09:45:18.905Z,4.90
2018-08-19T09:46:17.761Z,3.60
2018-08-19T09:47:17.754Z,3.00
2018-08-19T09:48:17.762Z,2.90
2018-08-19T09:49:18.272Z,3.20
2018-08-19T09:50:17.794Z,2.80
2018-08-19T09:51:17.809Z,3.30
2018-08-19T09:52:17.811Z,3.00
2018-08-19T09:53:17.825Z,3.20
2018-08-19T09:54:18.662Z,3.20
2018-08-19T09:55:17.987Z,3.40
2018-08-19T09:56:17.868Z,3.90
2018-08-19T09:57:17.941Z,3.60
2018-08-19T09:58:17.884Z,3.40
2018-08-19T09:59:17.906Z,4.00
2018-08-19T10:00:17.950Z,3.80
2018-08-19T10:01:17.952Z,3.10
2018-08-19T10:02:17.963Z,3.80
2018-08-19T10:03:18.698Z,3.50
2018-08-19T10:04:18.171Z,3.40
2018-08-19T10:05:18.230Z,3.50
2018-08-19T10:06:18.256Z,4.30
2018-08-19T10:07:18.132Z,3.90
2018-08-19T10:08:18.051Z,4.10
2018-08-19T10:09:18.062Z,3.50
2018-08-19T10:10:18.094Z,3.80
2018-08-19T10:11:18.080Z,2.80
2018-08-19T10:12:18.238Z,3.00
2018-08-19T10:13:18.110Z,4.00
2018-08-19T10:14:18.121Z,3.60
2018-08-19T10:15:18.153Z,4.10
2018-08-19T10:16:18.220Z,3.70
2018-08-19T10:17:18.178Z,4.90
2018-08-19T10:18:18.193Z,3.20
2018-08-19T10:19:18.328Z,3.00
2018-08-19T10:20:18.258Z,3.20
2018-08-19T10:21:18.233Z,3.90
2018-08-19T10:22:18.240Z,4.00
2018-08-19T10:23:18.259Z,4.10
2018-08-19T10:24:18.266Z,4.00
2018-08-19T10:25:18.307Z,4.20
2018-08-19T10:26:18.312Z,3.80
2018-08-19T10:27:18.447Z,3.80
2018-08-19T10:28:18.566Z,3.50
2018-08-19T10:29:18.349Z,4.80
2018-08-19T10:30:18.340Z,4.10
2018-08-19T10:31:18.425Z,3.90
2018-08-19T10:32:18.358Z,3.30
2018-08-19T10:33:18.389Z,3.20
2018-08-19T10:34:18.441Z,3.30
2018-08-19T10:35:18.477Z,4.20
2018-08-19T10:36:18.547Z,3.50
2018-08-19T10:37:18.477Z,2.90
2018-08-19T10:38:18.479Z,2.70
2018-08-19T10:39:18.566Z,4.80
2018-08-19T10:40:18.504Z,6.10
2018-08-19T10:41:18.524Z,3.30
2018-08-19T10:42:18.564Z,2.80
2018-08-19T10:43:18.694Z,3.40
2018-08-19T10:44:18.727Z,3.20
2018-08-19T10:45:19.099Z,3.70
2018-08-19T10:46:18.661Z,3.50
2018-08-19T10:47:18.723Z,4.70
2018-08-19T10:48:18.605Z,3.60
2018-08-19T10:49:19.169Z,3.20
2018-08-19T10:50:18.643Z,3.00
2018-08-19T10:51:18.657Z,3.20
2018-08-19T10:52:18.713Z,3.80
2018-08-19T10:53:18.734Z,3.50
2018-08-19T10:54:18.692Z,3.30
2018-08-19T10:55:18.889Z,3.40
2018-08-19T10:56:18.726Z,4.30
2018-08-19T10:57:18.738Z,3.60
2018-08-19T10:58:18.807Z,4.60
2018-08-19T10:59:18.759Z,3.30
2018-08-19T11:00:18.823Z,10.80
2018-08-19T11:01:18.807Z,4.70
2018-08-19T11:02:19.328Z,3.90
2018-08-19T11:03:18.835Z,3.00
2018-08-19T11:04:18.834Z,2.90
2018-08-19T11:05:18.852Z,3.40
2018-08-19T11:06:18.863Z,3.50
2018-08-19T11:07:18.945Z,2.90
2018-08-19T11:08:18.987Z,4.70
2018-08-19T11:09:18.940Z,5.00
2018-08-19T11:10:19.201Z,4.10
2018-08-19T11:11:18.940Z,3.50
2018-08-19T11:12:19.410Z,3.80
2018-08-19T11:13:19.007Z,3.20
2018-08-19T11:14:19.138Z,3.30
2018-08-19T11:15:19.059Z,4.90
2018-08-19T11:16:19.076Z,4.60
2018-08-19T11:17:19.068Z,8.60
2018-08-19T11:18:19.090Z,4.60
2018-08-19T11:19:19.081Z,9.10
2018-08-19T11:20:19.185Z,10.90
2018-08-19T11:21:19.091Z,6.20
2018-08-19T11:22:19.096Z,6.90
2018-08-19T11:23:19.104Z,10.20
2018-08-19T11:24:19.108Z,5.30
2018-08-19T11:25:19.184Z,3.80
2018-08-19T11:26:19.563Z,3.30
2018-08-19T11:27:19.166Z,7.60
2018-08-19T11:28:19.215Z,7.60
2018-08-19T11:29:19.196Z,6.70
2018-08-19T11:30:19.237Z,12.50
2018-08-19T11:31:19.219Z,5.60
2018-08-19T11:32:19.242Z,4.40
2018-08-19T11:33:19.354Z,6.80
2018-08-19T11:34:19.339Z,4.20
2018-08-19T11:35:19.271Z,3.50
2018-08-19T11:36:19.335Z,5.20
2018-08-19T11:37:19.320Z,5.40
2018-08-19T11:38:19.333Z,4.20
2018-08-19T11:39:19.337Z,3.90
2018-08-19T11:40:19.389Z,3.60
2018-08-19T11:41:19.372Z,5.00
2018-08-19T11:42:19.453Z,5.20
2018-08-19T11:43:19.503Z,5.30
2018-08-19T11:44:19.437Z,9.40
2018-08-19T11:45:19.475Z,7.30
2018-08-19T11:46:19.534Z,14.20
2018-08-19T11:47:19.445Z,13.00
2018-08-19T11:48:19.517Z,13.00
2018-08-19T11:49:19.500Z,7.20
2018-08-19T11:50:19.507Z,13.10
2018-08-19T11:51:19.593Z,5.50
2018-08-19T11:52:19.720Z,6.00
2018-08-19T11:53:19.574Z,6.30
2018-08-19T11:54:19.754Z,6.70
2018-08-19T11:55:19.621Z,7.10
2018-08-19T11:56:19.571Z,6.40
2018-08-19T11:57:19.649Z,6.10
2018-08-19T11:58:19.608Z,7.30
2018-08-19T11:59:19.639Z,4.80
2018-08-19T12:00:19.688Z,5.30
2018-08-19T12:01:19.702Z,4.90
2018-08-19T12:02:19.719Z,5.90
2018-08-19T12:03:19.878Z,13.80
2018-08-19T12:04:19.761Z,7.10
2018-08-19T12:05:19.714Z,10.00
2018-08-19T12:06:19.803Z,5.10
2018-08-19T12:07:19.754Z,4.50
2018-08-19T12:08:19.782Z,10.50
2018-08-19T12:09:20.325Z,5.00
2018-08-19T12:10:19.815Z,4.60
2018-08-19T12:11:19.895Z,8.60
2018-08-19T12:12:19.829Z,6.90
2018-08-19T12:13:19.839Z,5.10
2018-08-19T12:14:19.922Z,5.80
2018-08-19T12:15:19.898Z,12.90
2018-08-19T12:16:19.892Z,8.80
2018-08-19T12:17:19.919Z,10.30
2018-08-19T12:18:20.006Z,5.40
2018-08-19T12:19:19.953Z,11.70
2018-08-19T12:20:19.982Z,8.70
2018-08-19T12:21:20.001Z,3.90
2018-08-19T12:22:19.964Z,3.80
2018-08-19T12:23:19.970Z,5.80
2018-08-19T12:24:20.017Z,4.60
2018-08-19T12:25:20.043Z,3.60
2018-08-19T12:26:20.057Z,5.60
2018-08-19T12:27:20.101Z,5.10
2018-08-19T12:28:20.076Z,6.50
2018-08-19T12:29:20.101Z,9.40
2018-08-19T12:30:20.179Z,2.80
2018-08-19T12:31:20.107Z,2.80
2018-08-19T12:32:20.118Z,2.10
2018-08-19T12:33:20.147Z,2.10
2018-08-19T12:34:20.163Z,7.90
2018-08-19T12:35:20.207Z,6.60
2018-08-19T12:36:20.226Z,3.60
2018-08-19T12:37:20.390Z,4.30
2018-08-19T12:38:20.231Z,4.40
2018-08-19T12:39:20.238Z,5.10
2018-08-19T12:40:20.259Z,9.70
2018-08-19T12:41:20.278Z,44.30
2018-08-19T12:42:20.295Z,5.00
2018-08-19T12:43:20.279Z,6.30
2018-08-19T12:44:20.530Z,2.60
2018-08-19T12:45:20.319Z,2.60
2018-08-19T12:46:20.346Z,2.10
2018-08-19T12:47:20.372Z,2.10
2018-08-19T12:48:20.377Z,2.60
2018-08-19T12:49:20.403Z,3.50
2018-08-19T12:50:20.492Z,3.90
2018-08-19T12:51:20.443Z,2.90
2018-08-19T12:52:20.444Z,3.10
2018-08-19T12:53:20.465Z,3.30
2018-08-19T12:54:20.444Z,13.20
2018-08-19T12:55:20.481Z,24.40
2018-08-19T12:56:20.472Z,9.50
2018-08-19T12:57:20.571Z,8.00
2018-08-19T12:58:20.546Z,5.00
2018-08-19T12:59:20.544Z,16.20
2018-08-19T13:00:20.553Z,12.60
2018-08-19T13:01:20.544Z,12.90
2018-08-19T13:02:20.669Z,2.70
2018-08-19T13:03:20.575Z,4.60
2018-08-19T13:04:20.599Z,4.00
2018-08-19T13:05:20.820Z,4.80
2018-08-19T13:06:20.743Z,4.70
2018-08-19T13:07:20.865Z,5.10
2018-08-19T13:08:20.668Z,4.80
2018-08-19T13:09:20.679Z,5.90
2018-08-19T13:10:20.688Z,6.80
2018-08-19T13:11:20.723Z,5.60
2018-08-19T13:12:20.735Z,5.80
2018-08-19T13:13:20.798Z,4.00